createdAt,value
2022-12-01T00:02:18.444Z,0.71
2022-12-01T00:04:53.389Z,0.75
2022-12-01T00:07:25.069Z,0.79
2022-12-01T00:10:14.274Z,0.81
2022-12-01T00:12:45.849Z,0.69
2022-12-01T00:15:17.541Z,0.70
2022-12-01T00:17:49.599Z,0.73
2022-12-01T00:20:25.590Z,0.78
2022-12-01T00:22:57.192Z,0.82
2022-12-01T00:25:29.995Z,0.82
2022-12-01T00:28:01.634Z,0.75
2022-12-01T00:30:33.297Z,0.77
2022-12-01T00:33:07.436Z,0.80
2022-12-01T00:35:41.142Z,0.82
2022-12-01T00:38:12.969Z,0.87
2022-12-01T00:40:44.836Z,0.96
2022-12-01T00:43:16.414Z,1.01
2022-12-01T00:45:53.133Z,1.04
2022-12-01T00:48:27.181Z,1.06
2022-12-01T00:50:59.480Z,1.07
2022-12-01T00:53:31.479Z,1.01
2022-12-01T00:56:03.211Z,1.00
2022-12-01T00:58:34.969Z,1.04
2022-12-01T01:01:06.891Z,1.08
2022-12-01T01:03:41.551Z,1.04
2022-12-01T01:06:14.340Z,0.99
2022-12-01T01:08:46.256Z,1.04
2022-12-01T01:11:18.006Z,1.06
2022-12-01T01:13:49.765Z,1.07
2022-12-01T01:16:24.440Z,1.04
2022-12-01T01:18:58.053Z,1.10
2022-12-01T01:21:30.493Z,1.04
2022-12-01T01:24:02.218Z,0.94
2022-12-01T01:26:35.611Z,0.93
2022-12-01T01:29:08.702Z,0.98
2022-12-01T01:31:40.459Z,1.10
2022-12-01T01:34:12.087Z,1.09
2022-12-01T01:36:43.875Z,1.09
2022-12-01T01:39:15.487Z,1.13
2022-12-01T01:41:47.146Z,1.21
2022-12-01T01:44:48.649Z,1.26
2022-12-01T01:47:25.488Z,1.32
2022-12-01T01:49:59.522Z,1.31
2022-12-01T01:52:31.208Z,1.31
2022-12-01T01:55:03.257Z,1.28
2022-12-01T01:57:36.014Z,1.29
2022-12-01T02:00:13.367Z,1.31
2022-12-01T02:02:47.166Z,1.35
2022-12-01T02:05:23.629Z,1.37
2022-12-01T02:07:57.247Z,1.43
2022-12-01T02:10:39.136Z,1.41
2022-12-01T02:13:24.071Z,1.30
2022-12-01T02:16:05.015Z,1.26
2022-12-01T02:18:46.097Z,1.33
2022-12-01T02:21:43.396Z,1.33
2022-12-01T02:24:51.189Z,1.24
2022-12-01T02:27:38.408Z,1.21
2022-12-01T02:30:24.352Z,1.25
2022-12-01T02:33:08.520Z,1.34
2022-12-01T02:35:48.192Z,1.43
2022-12-01T02:38:26.199Z,1.37
2022-12-01T02:41:03.939Z,1.32
2022-12-01T02:43:45.442Z,1.32
2022-12-01T02:46:21.908Z,1.28
2022-12-01T02:48:57.391Z,1.18
2022-12-01T02:51:32.827Z,1.13
2022-12-01T02:54:08.325Z,1.10
2022-12-01T02:56:40.138Z,1.10
2022-12-01T02:59:14.081Z,1.11
2022-12-01T03:02:02.127Z,1.07
2022-12-01T03:04:51.806Z,1.10
2022-12-01T03:07:44.156Z,1.15
2022-12-01T03:10:27.677Z,1.17
2022-12-01T03:13:17.523Z,1.17
2022-12-01T03:15:56.264Z,1.17
2022-12-01T03:18:34.264Z,1.22
2022-12-01T03:21:14.707Z,1.24
2022-12-01T03:23:51.444Z,1.18
2022-12-01T03:26:26.104Z,1.13
2022-12-01T03:29:02.304Z,1.18
2022-12-01T03:31:39.412Z,1.22
2022-12-01T03:34:18.084Z,1.16
2022-12-01T03:36:54.458Z,1.08
2022-12-01T03:39:32.304Z,1.08
2022-12-01T03:42:08.767Z,1.07
2022-12-01T03:44:46.270Z,1.12
2022-12-01T03:47:20.838Z,1.23
2022-12-01T03:49:54.749Z,1.31
2022-12-01T03:52:38.814Z,1.32
2022-12-01T03:55:15.101Z,1.34
2022-12-01T03:57:52.681Z,1.43
2022-12-01T04:00:31.450Z,1.49
2022-12-01T04:03:04.946Z,1.55
2022-12-01T04:05:37.494Z,1.59
2022-12-01T04:08:09.361Z,1.60
2022-12-01T04:10:43.592Z,1.66
2022-12-01T04:13:23.015Z,1.66
2022-12-01T04:15:56.998Z,1.66
2022-12-01T04:18:28.661Z,1.66
2022-12-01T04:21:00.369Z,1.69
2022-12-01T04:23:49.606Z,1.73
2022-12-01T04:26:21.372Z,1.79
2022-12-01T04:28:54.989Z,1.83
2022-12-01T04:31:27.036Z,1.88
2022-12-01T04:34:00.154Z,1.92
2022-12-01T04:36:33.717Z,1.95
2022-12-01T04:39:06.019Z,1.94
2022-12-01T04:41:37.602Z,1.87
2022-12-01T04:44:10.105Z,1.89
2022-12-01T04:46:41.871Z,1.90
2022-12-01T04:49:13.579Z,1.93
2022-12-01T04:51:45.325Z,1.93
2022-12-01T04:54:18.321Z,1.97
2022-12-01T04:56:50.104Z,1.95
2022-12-01T04:59:22.053Z,1.81
2022-12-01T05:01:53.779Z,1.81
2022-12-01T05:04:25.453Z,1.75
2022-12-01T05:06:57.966Z,1.70
2022-12-01T05:09:32.454Z,1.71
2022-12-01T05:12:04.105Z,1.65
2022-12-01T05:14:35.746Z,1.66
2022-12-01T05:17:09.356Z,1.62
2022-12-01T05:19:58.575Z,1.60
2022-12-01T05:23:03.366Z,1.58
2022-12-01T05:25:21.896Z,1.53
2022-12-01T05:27:53.755Z,1.58
2022-12-01T05:30:28.509Z,1.62
2022-12-01T05:33:01.247Z,1.60
2022-12-01T05:35:33.692Z,1.59
2022-12-01T05:38:07.970Z,1.61
2022-12-01T05:40:40.329Z,1.62
2022-12-01T05:43:12.029Z,1.66
2022-12-01T05:45:43.899Z,1.68
2022-12-01T05:48:15.576Z,1.74
2022-12-01T05:50:47.291Z,1.74
2022-12-01T05:53:19.471Z,1.68
2022-12-01T05:55:54.675Z,1.61
2022-12-01T05:58:26.350Z,1.60
2022-12-01T06:00:58.004Z,1.62
2022-12-01T06:03:29.741Z,1.59
2022-12-01T06:06:01.409Z,1.55
2022-12-01T06:08:33.075Z,1.59
2022-12-01T06:11:04.755Z,1.62
2022-12-01T06:13:36.433Z,1.58
2022-12-01T06:16:10.971Z,1.59
2022-12-01T06:18:42.675Z,1.58
2022-12-01T06:21:14.310Z,1.50
2022-12-01T06:23:46.186Z,1.50
2022-12-01T06:26:17.777Z,1.49
2022-12-01T06:28:49.454Z,1.48
2022-12-01T06:31:21.488Z,1.52
2022-12-01T06:33:53.251Z,1.58
2022-12-01T06:36:24.950Z,1.59
2022-12-01T06:38:56.778Z,1.51
2022-12-01T06:41:28.360Z,1.51
2022-12-01T06:44:00.056Z,1.50
2022-12-01T06:46:32.158Z,1.47
2022-12-01T06:49:04.444Z,1.51
2022-12-01T06:51:36.164Z,1.58
2022-12-01T06:54:09.414Z,1.60
2022-12-01T06:56:42.947Z,1.64
2022-12-01T06:59:14.900Z,1.67
2022-12-01T07:01:47.142Z,1.71
2022-12-01T07:04:19.495Z,1.68
2022-12-01T07:06:51.196Z,1.64
2022-12-01T07:09:23.159Z,1.60
2022-12-01T07:11:54.861Z,1.62
2022-12-01T07:14:27.943Z,1.69
2022-12-01T07:16:59.917Z,1.77
2022-12-01T07:19:31.792Z,1.75
2022-12-01T07:22:03.463Z,1.67
2022-12-01T07:25:09.308Z,1.61
2022-12-01T07:27:46.741Z,1.63
2022-12-01T07:30:32.956Z,1.67
2022-12-01T07:33:21.423Z,1.73
2022-12-01T07:35:55.878Z,1.76
2022-12-01T07:38:28.275Z,1.82
2022-12-01T07:41:06.725Z,1.80
2022-12-01T07:43:38.735Z,1.82
2022-12-01T07:46:18.772Z,1.79
2022-12-01T07:48:54.292Z,1.88
2022-12-01T07:51:26.858Z,2.02
2022-12-01T07:54:02.636Z,2.08
2022-12-01T07:56:34.525Z,2.06
2022-12-01T07:59:06.137Z,1.99
2022-12-01T08:01:42.931Z,1.96
2022-12-01T08:04:16.180Z,1.98
2022-12-01T08:06:48.144Z,2.04
2022-12-01T08:09:19.825Z,2.11
2022-12-01T08:11:51.601Z,2.08
2022-12-01T08:14:23.285Z,2.10
2022-12-01T08:16:54.931Z,2.09
2022-12-01T08:19:27.779Z,2.04
2022-12-01T08:21:59.526Z,2.06
2022-12-01T08:24:31.213Z,2.13
2022-12-01T08:27:02.941Z,2.19
2022-12-01T08:29:36.157Z,2.18
2022-12-01T08:32:16.969Z,2.17
2022-12-01T08:34:53.444Z,2.23
2022-12-01T08:37:25.549Z,2.22
2022-12-01T08:39:57.118Z,2.25
2022-12-01T08:42:28.894Z,2.30
2022-12-01T08:45:00.566Z,2.38
2022-12-01T08:47:32.479Z,2.40
2022-12-01T08:50:05.200Z,2.39
2022-12-01T08:53:21.721Z,2.44
2022-12-01T08:55:59.634Z,2.40
2022-12-01T08:58:32.065Z,2.36
2022-12-01T09:01:12.284Z,2.43
2022-12-01T09:03:44.869Z,2.54
2022-12-01T09:06:20.253Z,2.65
2022-12-01T09:08:52.027Z,2.59
2022-12-01T09:11:23.746Z,2.59
2022-12-01T09:13:55.460Z,2.60
2022-12-01T09:16:27.247Z,2.63
2022-12-01T09:18:59.067Z,2.69
2022-12-01T09:21:33.636Z,2.75
2022-12-01T09:24:06.857Z,2.86
2022-12-01T09:26:38.450Z,2.86
2022-12-01T09:29:13.614Z,2.89
2022-12-01T09:31:45.651Z,2.92
2022-12-01T09:34:18.734Z,2.97
2022-12-01T09:36:50.801Z,2.99
2022-12-01T09:39:23.275Z,3.00
2022-12-01T09:41:58.476Z,3.03
2022-12-01T09:44:43.159Z,3.06
2022-12-01T09:47:19.295Z,3.06
2022-12-01T09:49:56.918Z,3.12
2022-12-01T09:52:30.791Z,3.06
2022-12-01T09:55:03.238Z,2.99
2022-12-01T09:57:37.274Z,2.97
2022-12-01T10:00:16.176Z,2.97
2022-12-01T10:02:53.580Z,3.04
2022-12-01T10:05:32.659Z,3.05
2022-12-01T10:08:07.179Z,3.05
2022-12-01T10:10:42.027Z,3.08
2022-12-01T10:13:20.858Z,3.07
2022-12-01T10:15:58.669Z,3.04
2022-12-01T10:18:43.413Z,3.02
2022-12-01T10:21:30.715Z,3.07
2022-12-01T10:24:24.379Z,3.05
2022-12-01T10:27:03.689Z,3.02
2022-12-01T10:29:47.597Z,2.99
2022-12-01T10:32:23.541Z,3.01
2022-12-01T10:34:55.144Z,2.95
2022-12-01T10:37:32.822Z,2.96
2022-12-01T10:40:05.077Z,3.02
2022-12-01T10:42:42.357Z,3.07
2022-12-01T10:45:19.578Z,3.09
2022-12-01T10:48:16.544Z,3.03
2022-12-01T10:50:50.339Z,2.96
2022-12-01T10:53:29.927Z,2.91
2022-12-01T10:56:11.387Z,2.87
2022-12-01T10:58:49.693Z,2.87
2022-12-01T11:01:26.848Z,2.94
2022-12-01T11:04:02.622Z,2.99
2022-12-01T11:06:36.516Z,2.97
2022-12-01T11:09:24.386Z,2.92
2022-12-01T11:12:00.367Z,2.91
2022-12-01T11:14:44.037Z,2.89
2022-12-01T11:17:27.364Z,2.92
2022-12-01T11:19:59.874Z,2.96
2022-12-01T11:22:33.098Z,3.01
2022-12-01T11:25:19.553Z,3.00
2022-12-01T11:27:54.882Z,2.94
2022-12-01T11:30:34.080Z,2.96
2022-12-01T11:33:06.414Z,2.95
2022-12-01T11:35:39.896Z,2.99
2022-12-01T11:38:30.447Z,3.00
2022-12-01T11:41:02.379Z,2.99
2022-12-01T11:43:38.283Z,2.99
2022-12-01T11:46:11.565Z,3.03
2022-12-01T11:48:57.776Z,3.08
2022-12-01T11:51:37.369Z,3.11
2022-12-01T11:54:17.332Z,3.06
2022-12-01T11:57:25.367Z,3.01
2022-12-01T11:59:45.121Z,3.02
2022-12-01T12:02:28.387Z,3.06
2022-12-01T12:05:14.237Z,3.13
2022-12-01T12:07:58.832Z,3.18
2022-12-01T12:10:42.839Z,3.17
2022-12-01T12:13:53.615Z,3.18
2022-12-01T12:16:36.116Z,3.19
2022-12-01T12:19:33.845Z,3.16
2022-12-01T12:22:20.738Z,3.15
2022-12-01T12:25:14.364Z,3.14
2022-12-01T12:27:54.482Z,3.14
2022-12-01T12:30:33.034Z,3.13
2022-12-01T12:33:30.518Z,3.16
2022-12-01T12:36:11.610Z,3.12
2022-12-01T12:38:52.184Z,3.08
2022-12-01T12:41:35.045Z,3.11
2022-12-01T12:44:18.452Z,3.15
2022-12-01T12:46:58.874Z,3.19
2022-12-01T12:49:39.242Z,3.24
2022-12-01T12:52:17.546Z,3.22
2022-12-01T12:54:53.451Z,3.21
2022-12-01T12:57:49.292Z,3.18
2022-12-01T13:00:25.752Z,3.15
2022-12-01T13:03:09.003Z,3.16
2022-12-01T13:05:47.106Z,3.17
2022-12-01T13:08:24.486Z,3.15
2022-12-01T13:11:00.418Z,3.14
2022-12-01T13:13:38.324Z,3.11
2022-12-01T13:16:15.878Z,3.05
2022-12-01T13:18:51.684Z,3.01
2022-12-01T13:21:24.884Z,3.01
2022-12-01T13:23:56.758Z,3.04
2022-12-01T13:26:28.874Z,3.09
2022-12-01T13:29:23.522Z,3.14
2022-12-01T13:31:56.495Z,3.12
2022-12-01T13:34:34.628Z,3.13
2022-12-01T13:37:06.936Z,3.07
2022-12-01T13:39:40.641Z,2.99
2022-12-01T13:42:25.820Z,2.95
2022-12-01T13:45:01.187Z,2.91
2022-12-01T13:47:53.877Z,2.90
2022-12-01T13:50:58.740Z,2.90
2022-12-01T13:53:37.395Z,2.84
2022-12-01T13:56:27.811Z,2.77
2022-12-01T13:58:59.465Z,2.78
2022-12-01T14:01:48.547Z,2.80
2022-12-01T14:04:33.531Z,2.79
2022-12-01T14:07:24.367Z,2.79
2022-12-01T14:10:13.121Z,2.77
2022-12-01T14:12:47.412Z,2.71
2022-12-01T14:15:34.164Z,2.71
2022-12-01T14:18:31.097Z,2.76
2022-12-01T14:21:05.563Z,2.73
2022-12-01T14:23:39.664Z,2.70
2022-12-01T14:26:17.977Z,2.69
2022-12-01T14:29:25.241Z,2.73
2022-12-01T14:32:20.674Z,2.76
2022-12-01T14:35:00.514Z,2.75
2022-12-01T14:37:40.612Z,2.76
2022-12-01T14:40:25.509Z,2.74
2022-12-01T14:43:16.592Z,2.72
2022-12-01T14:46:04.136Z,2.75
2022-12-01T14:48:40.471Z,2.73
2022-12-01T14:51:20.709Z,2.70
2022-12-01T14:53:55.581Z,2.66
2022-12-01T14:56:29.487Z,2.66
2022-12-01T14:59:02.942Z,2.66
2022-12-01T15:01:38.318Z,2.65
2022-12-01T15:04:10.273Z,2.64
2022-12-01T15:06:42.409Z,2.63
2022-12-01T15:12:24.898Z,2.60
2022-12-01T15:14:56.911Z,2.53
2022-12-01T15:17:37.776Z,2.48
2022-12-01T15:20:30.111Z,2.50
2022-12-01T15:23:09.084Z,2.54
2022-12-01T15:25:45.138Z,2.59
2022-12-01T15:28:19.838Z,2.62
2022-12-01T15:30:55.727Z,2.61
2022-12-01T15:33:36.932Z,2.56
2022-12-01T15:36:11.837Z,2.53
2022-12-01T15:38:45.249Z,2.53
2022-12-01T15:41:28.996Z,2.53
2022-12-01T15:44:03.772Z,2.58
2022-12-01T15:46:36.354Z,2.64
2022-12-01T15:49:17.710Z,2.60
2022-12-01T15:51:52.204Z,2.57
2022-12-01T15:54:26.597Z,2.63
2022-12-01T15:57:03.520Z,2.66
2022-12-01T15:59:40.234Z,2.64
2022-12-01T16:02:27.147Z,2.63
2022-12-01T16:05:19.081Z,2.63
2022-12-01T16:08:12.531Z,2.59
2022-12-01T16:10:42.530Z,2.60
2022-12-01T16:13:44.557Z,2.59
2022-12-01T16:16:48.135Z,2.58
2022-12-01T16:19:27.630Z,2.56
2022-12-01T16:22:03.282Z,2.60
2022-12-01T16:24:37.521Z,2.65
2022-12-01T16:27:18.636Z,2.64
2022-12-01T16:29:53.173Z,2.65
2022-12-01T16:32:29.186Z,2.65
2022-12-01T16:35:04.309Z,2.63
2022-12-01T16:37:36.089Z,2.64
2022-12-01T16:40:16.941Z,2.64
2022-12-01T16:42:51.139Z,2.66
2022-12-01T16:45:26.487Z,2.65
2022-12-01T16:47:58.118Z,2.65
2022-12-01T16:50:29.993Z,2.61
2022-12-01T16:53:01.826Z,2.59
2022-12-01T16:55:41.416Z,2.55
2022-12-01T16:58:13.137Z,2.52
2022-12-01T17:00:44.967Z,2.57
2022-12-01T17:03:18.347Z,2.64
2022-12-01T17:05:50.507Z,2.64
2022-12-01T17:08:22.528Z,2.69
2022-12-01T17:10:54.991Z,2.68
2022-12-01T17:13:27.326Z,2.64
2022-12-01T17:15:59.206Z,2.63
2022-12-01T17:18:31.048Z,2.64
2022-12-01T17:21:05.149Z,2.62
2022-12-01T17:23:38.838Z,2.63
2022-12-01T17:26:13.733Z,2.60
2022-12-01T17:28:45.393Z,2.60
2022-12-01T17:31:17.692Z,2.62
2022-12-01T17:33:49.480Z,2.63
2022-12-01T17:36:21.369Z,2.70
2022-12-01T17:38:53.037Z,2.72
2022-12-01T17:41:25.551Z,2.76
2022-12-01T17:43:57.292Z,2.78
2022-12-01T17:46:30.155Z,2.77
2022-12-01T17:49:08.566Z,2.77
2022-12-01T17:51:40.228Z,2.76
2022-12-01T17:54:11.922Z,2.74
2022-12-01T17:56:45.894Z,2.75
2022-12-01T17:59:17.787Z,2.77
2022-12-01T18:01:49.544Z,2.74
2022-12-01T18:04:21.367Z,2.74
2022-12-01T18:06:54.589Z,2.79
2022-12-01T18:09:26.545Z,2.81
2022-12-01T18:11:58.326Z,2.87
2022-12-01T18:14:30.026Z,2.89
2022-12-01T18:17:07.619Z,2.87
2022-12-01T18:19:40.676Z,2.84
2022-12-01T18:22:12.368Z,2.83
2022-12-01T18:24:44.091Z,2.85
2022-12-01T18:27:15.725Z,2.85
2022-12-01T18:29:48.287Z,2.89
2022-12-01T18:32:19.907Z,2.85
2022-12-01T18:34:51.956Z,2.83
2022-12-01T18:37:23.887Z,2.76
2022-12-01T18:39:57.377Z,2.72
2022-12-01T18:42:30.861Z,2.66
2022-12-01T18:45:02.618Z,2.67
2022-12-01T18:47:34.229Z,2.68
2022-12-01T18:50:12.589Z,2.66
2022-12-01T18:52:44.301Z,2.62
2022-12-01T18:55:16.087Z,2.57
2022-12-01T18:57:47.775Z,2.58
2022-12-01T19:00:24.052Z,2.60
2022-12-01T19:02:55.748Z,2.55
2022-12-01T19:05:27.814Z,2.55
2022-12-01T19:07:59.583Z,2.61
2022-12-01T19:10:31.314Z,2.70
2022-12-01T19:13:03.246Z,2.75
2022-12-01T19:15:36.946Z,2.73
2022-12-01T19:18:08.992Z,2.76
2022-12-01T19:20:43.335Z,2.74
2022-12-01T19:23:15.255Z,2.73
2022-12-01T19:25:46.974Z,2.72
2022-12-01T19:28:18.723Z,2.73
2022-12-01T19:30:50.698Z,2.74
2022-12-01T19:33:24.771Z,2.75
2022-12-01T19:35:56.718Z,2.74
2022-12-01T19:38:28.980Z,2.70
2022-12-01T19:41:00.720Z,2.63
2022-12-01T19:43:34.213Z,2.63
2022-12-01T19:46:09.440Z,2.64
2022-12-01T19:48:44.276Z,2.63
2022-12-01T19:51:21.020Z,2.63
2022-12-01T19:53:53.213Z,2.62
2022-12-01T19:56:25.896Z,2.64
2022-12-01T19:58:58.464Z,2.65
2022-12-01T20:01:30.330Z,2.66
2022-12-01T20:04:02.471Z,2.69
2022-12-01T20:06:36.755Z,2.65
2022-12-01T20:09:09.883Z,2.59
2022-12-01T20:11:42.582Z,2.51
2022-12-01T20:14:15.448Z,2.49
2022-12-01T20:16:47.188Z,2.45
2022-12-01T20:19:28.027Z,2.44
2022-12-01T20:25:59.054Z,2.49
2022-12-01T20:28:31.935Z,2.49
2022-12-01T20:31:04.449Z,2.53
2022-12-01T20:33:39.959Z,2.61
2022-12-01T20:36:12.166Z,2.64
2022-12-01T20:38:44.038Z,2.66
2022-12-01T20:41:15.693Z,2.64
2022-12-01T20:43:47.484Z,2.62
2022-12-01T20:46:21.362Z,2.59
2022-12-01T20:48:55.105Z,2.59
2022-12-01T20:51:26.870Z,2.60
2022-12-01T20:54:26.053Z,2.63
2022-12-01T20:56:50.270Z,2.66
2022-12-01T20:59:21.994Z,2.63
2022-12-01T21:01:56.576Z,2.63
2022-12-01T21:04:31.085Z,2.64
2022-12-01T21:07:02.915Z,2.70
2022-12-01T21:09:34.891Z,2.71
2022-12-01T21:12:32.151Z,2.70
2022-12-01T21:15:09.927Z,2.70
2022-12-01T21:17:44.211Z,2.67
2022-12-01T21:20:26.063Z,2.64
2022-12-01T21:23:25.011Z,2.65
2022-12-01T21:26:21.041Z,2.66
2022-12-01T21:29:04.857Z,2.59
2022-12-01T21:32:52.426Z,2.57
2022-12-01T21:35:39.537Z,2.54
2022-12-01T21:38:20.439Z,2.45
2022-12-01T21:40:53.620Z,2.41
2022-12-01T21:43:26.739Z,2.43
2022-12-01T21:46:03.098Z,2.41
2022-12-01T21:48:37.800Z,2.37
2022-12-01T21:51:19.713Z,2.34
2022-12-01T21:53:52.370Z,2.34
2022-12-01T21:56:25.474Z,2.37
2022-12-01T21:59:00.557Z,2.36
2022-12-01T22:01:33.913Z,2.40
2022-12-01T22:04:15.631Z,2.51
2022-12-01T22:06:52.137Z,2.53
2022-12-01T22:09:27.012Z,2.51
2022-12-01T22:12:01.259Z,2.54
2022-12-01T22:14:36.527Z,2.54
2022-12-01T22:17:19.957Z,2.54
2022-12-01T22:19:56.989Z,2.54
2022-12-01T22:22:32.618Z,2.54
2022-12-01T22:25:26.385Z,2.52
2022-12-01T22:28:01.345Z,2.51
2022-12-01T22:30:33.212Z,2.55
2022-12-01T22:33:06.557Z,2.52
2022-12-01T22:35:42.063Z,2.44
2022-12-01T22:38:33.533Z,2.42
2022-12-01T22:41:07.920Z,2.41
2022-12-01T22:43:46.550Z,2.47
2022-12-01T22:46:24.640Z,2.56
2022-12-01T22:48:57.912Z,2.59
2022-12-01T22:51:32.656Z,2.56
2022-12-01T22:54:23.404Z,2.57
2022-12-01T22:57:03.015Z,2.55
2022-12-01T22:59:40.123Z,2.47
2022-12-01T23:02:21.527Z,2.43
2022-12-01T23:04:57.297Z,2.41
2022-12-01T23:07:35.347Z,2.38
2022-12-01T23:10:13.531Z,2.36
2022-12-01T23:12:46.745Z,2.31
2022-12-01T23:15:33.779Z,2.28
2022-12-01T23:18:15.199Z,2.23
2022-12-01T23:20:49.781Z,2.19
2022-12-01T23:23:27.629Z,2.21
2022-12-01T23:26:02.340Z,2.21
2022-12-01T23:28:35.974Z,2.22
2022-12-01T23:31:08.008Z,2.19
2022-12-01T23:33:39.665Z,2.21
2022-12-01T23:36:16.394Z,2.23
2022-12-01T23:38:57.126Z,2.24
2022-12-01T23:41:33.704Z,2.24
2022-12-01T23:44:13.234Z,2.25
2022-12-01T23:46:45.375Z,2.22
2022-12-01T23:49:20.664Z,2.20
2022-12-01T23:52:00.202Z,2.21
2022-12-01T23:54:35.261Z,2.23
2022-12-01T23:57:17.499Z,2.23
2022-12-01T23:59:49.544Z,2.25
